Airfield :
LOGIN :

Register | Disclaimer

   EN    FR    IT 

 










Legend :    VFR   Marginal VFR   IFR   Intensive IFR   Very Intensive IFR
Visi :
Ceiling :
>= 8 km
>= 3000ft
5 to 8 km
1000 to 3000 ft
1500m to 5 km
500 to 1000 ft
800 to 1500m
200 to 500 ft
< 800m
< 200 ft
Symbols :   Thunderstorms  Fog  Heavy snow  Heavy precipitations  Wind > 20 kt
SIGMETs :     Misc.  Thunderstorms  Icing  Turbulence  Mountain Waves  Volcanic Ashes






- Airport Elevation : 26 ft


ETNT - Wittmundhaven AB

CURRENT METAR :
  • 182020Z 33002KT 9999 FEW020 BKN040 10/07 Q1013 BLU

EXPIRED METARs :
  • 181920Z 34002KT 9999 FEW020 SCT043 10/06 Q1013 BLU+
  • 181820Z 36005KT 9999 FEW020 11/06 Q1013 BLU+

TAF TAF ETNT
Valid from the 18 at 14:00 until the 18 at 23:00 UTC


181315Z 1814/1823 30007KT 9999 NSW FEW020 BKN060
TEMPO 1814/1823 33010KT 4000 SHRA BKN010 BKN020TCU BY ETGL



MET'MAP, your aeronautical weather chart ! - Copyright ORBIFLY December 2007 - Disclaimer

ORBIFLY MET'MAP TEAM :

Programming & Development : Alexandra Zaïnal
Concept & original design : Baudouin d'Aumeries
Assistance for programming : Marc-Olivier Méhu
Technical & hardware support : Manuel Goepfert

Contact : metmap@orbifly.com




SOURCES & CREDITS :

   NOAA